createdAt,value
2018-07-05T00:02:08.680Z,2.60
2018-07-05T00:04:49.283Z,2.10
2018-07-05T00:07:29.802Z,2.23
2018-07-05T00:10:10.262Z,2.30
2018-07-05T00:12:52.334Z,1.60
2018-07-05T00:15:32.990Z,2.53
2018-07-05T00:18:13.642Z,2.13
2018-07-05T00:20:54.433Z,1.77
2018-07-05T00:23:36.071Z,1.87
2018-07-05T00:26:16.625Z,1.90
2018-07-05T00:28:57.437Z,1.60
2018-07-05T00:31:37.912Z,1.80
2018-07-05T00:34:19.245Z,1.77
2018-07-05T00:37:00.254Z,1.53
2018-07-05T00:39:40.834Z,1.63
2018-07-05T00:42:21.465Z,1.23
2018-07-05T00:45:02.242Z,2.00
2018-07-05T00:47:42.644Z,1.50
2018-07-05T00:50:23.946Z,2.00
2018-07-05T00:53:04.734Z,1.40
2018-07-05T00:55:45.661Z,1.97
2018-07-05T00:58:26.787Z,1.80
2018-07-05T01:01:07.353Z,1.80
2018-07-05T01:03:48.696Z,2.00
2018-07-05T01:06:30.124Z,1.90
2018-07-05T01:09:10.688Z,1.57
2018-07-05T01:11:51.997Z,1.93
2018-07-05T01:14:32.605Z,1.80
2018-07-05T01:17:13.152Z,1.83
2018-07-05T01:19:53.991Z,1.80
2018-07-05T01:22:34.606Z,1.93
2018-07-05T01:25:15.105Z,2.00
2018-07-05T01:27:56.156Z,2.00
2018-07-05T01:30:36.798Z,1.60
2018-07-05T01:33:17.505Z,1.90
2018-07-05T01:35:58.539Z,1.80
2018-07-05T01:38:39.153Z,1.97
2018-07-05T01:41:19.965Z,2.03
2018-07-05T01:44:00.590Z,1.80
2018-07-05T01:46:41.068Z,1.77
2018-07-05T01:49:21.628Z,1.60
2018-07-05T01:52:02.183Z,2.00
2018-07-05T01:54:42.900Z,2.93
2018-07-05T01:57:24.344Z,2.20
2018-07-05T02:00:05.024Z,2.53
2018-07-05T02:02:45.812Z,2.53
2018-07-05T02:05:26.545Z,2.43
2018-07-05T02:08:07.025Z,2.73
2018-07-05T02:10:47.573Z,3.03
2018-07-05T02:13:28.375Z,2.27
2018-07-05T02:16:09.163Z,2.60
2018-07-05T02:18:49.729Z,2.60
2018-07-05T02:21:30.496Z,3.50
2018-07-05T02:24:11.471Z,2.73
2018-07-05T02:26:52.070Z,3.00
2018-07-05T02:29:33.270Z,3.17
2018-07-05T02:32:13.801Z,2.70
2018-07-05T02:34:54.212Z,2.90
2018-07-05T02:37:40.237Z,2.80
2018-07-05T02:40:20.684Z,2.70
2018-07-05T02:43:01.881Z,3.10
2018-07-05T02:45:42.422Z,3.10
2018-07-05T02:55:32.307Z,3.07
2018-07-05T02:58:13.332Z,2.60
2018-07-05T03:00:54.924Z,3.53
2018-07-05T03:03:35.715Z,2.67
2018-07-05T03:06:16.369Z,2.70
2018-07-05T03:08:56.817Z,2.77
2018-07-05T03:11:37.562Z,3.10
2018-07-05T03:14:18.174Z,2.60
2018-07-05T03:16:59.215Z,2.87
2018-07-05T03:19:39.895Z,2.93
2018-07-05T03:22:20.773Z,2.80
2018-07-05T03:25:01.577Z,2.40
2018-07-05T03:27:42.602Z,3.00
2018-07-05T03:30:23.060Z,2.47
2018-07-05T03:33:04.287Z,2.90
2018-07-05T03:35:44.865Z,2.40
2018-07-05T03:38:25.276Z,2.30
2018-07-05T03:41:05.880Z,2.87
2018-07-05T03:43:46.330Z,2.60
2018-07-05T03:46:26.725Z,2.57
2018-07-05T03:49:07.592Z,2.50
2018-07-05T03:51:47.880Z,2.67
2018-07-05T03:54:28.373Z,2.63
2018-07-05T03:57:09.086Z,2.30
2018-07-05T03:59:49.660Z,2.13
2018-07-05T04:02:30.539Z,2.80
2018-07-05T04:05:11.117Z,2.97
2018-07-05T04:07:51.849Z,2.73
2018-07-05T04:10:32.994Z,2.67
2018-07-05T04:13:13.725Z,2.10
2018-07-05T04:15:54.319Z,2.90
2018-07-05T04:18:34.799Z,2.73
2018-07-05T04:21:18.330Z,2.43
2018-07-05T04:23:58.797Z,2.17
2018-07-05T04:26:39.497Z,2.20
2018-07-05T04:29:20.000Z,2.20
2018-07-05T04:32:00.650Z,3.60
2018-07-05T04:34:41.202Z,2.80
2018-07-05T04:37:21.631Z,2.07
2018-07-05T04:40:02.242Z,2.33
2018-07-05T04:42:42.889Z,2.10
2018-07-05T04:45:23.435Z,2.03
2018-07-05T04:48:04.672Z,2.40
2018-07-05T04:50:45.349Z,2.17
2018-07-05T04:53:26.569Z,2.20
2018-07-05T04:56:07.199Z,2.33
2018-07-05T04:58:47.951Z,2.40
2018-07-05T05:01:28.594Z,2.60
2018-07-05T05:04:09.394Z,2.03
2018-07-05T05:06:50.054Z,2.33
2018-07-05T05:09:30.537Z,2.33
2018-07-05T05:12:11.918Z,2.37
2018-07-05T05:14:52.811Z,2.00
2018-07-05T05:17:33.441Z,3.00
2018-07-05T05:20:14.116Z,2.60
2018-07-05T05:22:54.919Z,2.80
2018-07-05T05:25:35.594Z,2.50
2018-07-05T05:28:16.212Z,2.50
2018-07-05T05:30:56.845Z,2.73
2018-07-05T05:33:37.646Z,2.30
2018-07-05T05:36:18.230Z,2.77
2018-07-05T05:38:58.830Z,2.70
2018-07-05T05:41:39.563Z,2.70
2018-07-05T05:44:20.241Z,2.77
2018-07-05T05:47:00.994Z,2.60
2018-07-05T05:49:41.769Z,2.63
2018-07-05T05:52:22.300Z,3.20
2018-07-05T05:55:03.071Z,2.90
2018-07-05T05:57:44.652Z,2.17
2018-07-05T06:00:25.166Z,2.40
2018-07-05T06:03:06.181Z,2.13
2018-07-05T06:05:46.626Z,3.30
2018-07-05T06:08:27.346Z,2.23
2018-07-05T06:11:08.458Z,3.80
2018-07-05T06:13:48.945Z,2.47
2018-07-05T06:16:29.485Z,2.30
2018-07-05T06:19:10.100Z,2.33
2018-07-05T06:21:50.680Z,2.77
2018-07-05T06:24:31.464Z,2.53
2018-07-05T06:27:12.037Z,3.20
2018-07-05T06:29:52.511Z,2.07
2018-07-05T06:32:33.331Z,2.50
2018-07-05T06:35:14.404Z,2.60
2018-07-05T06:37:55.087Z,2.23
2018-07-05T06:40:35.968Z,2.23
2018-07-05T06:43:16.488Z,2.53
2018-07-05T06:45:57.368Z,2.57
2018-07-05T06:48:38.185Z,2.30
2018-07-05T06:51:19.259Z,1.93
2018-07-05T06:53:59.852Z,1.40
2018-07-05T06:56:40.686Z,2.10
2018-07-05T06:59:21.332Z,1.60
2018-07-05T07:02:02.130Z,1.57
2018-07-05T07:04:42.828Z,2.00
2018-07-05T07:07:23.485Z,1.70
2018-07-05T07:10:04.308Z,1.83
2018-07-05T07:12:44.927Z,1.57
2018-07-05T07:15:25.550Z,1.40
2018-07-05T07:18:06.601Z,1.23
2018-07-05T07:20:47.276Z,1.70
2018-07-05T07:23:27.802Z,1.00
2018-07-05T07:26:08.615Z,1.57
2018-07-05T07:28:49.300Z,1.40
2018-07-05T07:31:29.675Z,1.00
2018-07-05T07:34:10.732Z,1.00
2018-07-05T07:36:51.376Z,0.90
2018-07-05T07:39:32.360Z,0.90
2018-07-05T07:42:00.564Z,1.03
2018-07-05T07:44:28.708Z,1.07
2018-07-05T07:46:56.836Z,1.20
2018-07-05T07:49:25.024Z,1.03
2018-07-05T07:51:53.083Z,1.10
2018-07-05T07:54:21.282Z,0.70
2018-07-05T07:56:49.429Z,0.70
2018-07-05T07:59:17.529Z,0.70
2018-07-05T08:01:46.085Z,0.80
2018-07-05T08:04:14.402Z,0.80
2018-07-05T08:06:42.722Z,0.70
2018-07-05T08:09:11.474Z,0.80
2018-07-05T08:11:39.660Z,0.70
2018-07-05T08:14:08.578Z,1.00
2018-07-05T08:16:36.910Z,0.73
2018-07-05T08:19:05.295Z,0.90
2018-07-05T08:21:33.577Z,0.70
2018-07-05T08:24:01.891Z,0.67
2018-07-05T08:26:30.117Z,0.80
2018-07-05T08:28:58.237Z,0.70
2018-07-05T08:31:26.614Z,0.90
2018-07-05T08:36:29.441Z,1.00
2018-07-05T08:38:57.550Z,0.90
2018-07-05T08:41:25.645Z,0.83
2018-07-05T08:43:54.037Z,0.70
2018-07-05T08:46:22.127Z,0.60
2018-07-05T08:48:50.260Z,0.90
2018-07-05T08:51:18.356Z,0.80
2018-07-05T10:15:44.483Z,1.00
2018-07-05T10:18:12.842Z,1.03
2018-07-05T10:20:41.140Z,0.90
2018-07-05T10:23:09.880Z,1.20
2018-07-05T10:25:38.292Z,1.13
2018-07-05T10:28:06.753Z,0.93
2018-07-05T10:30:47.253Z,0.80
2018-07-05T10:33:27.900Z,0.90
2018-07-05T10:35:56.018Z,1.10
2018-07-05T10:38:24.126Z,1.57
2018-07-05T10:41:05.145Z,0.93
2018-07-05T10:43:45.758Z,1.27
2018-07-05T10:46:26.365Z,1.37
2018-07-05T10:49:07.237Z,1.20
2018-07-05T10:51:47.773Z,1.40
2018-07-05T10:54:28.473Z,1.57
2018-07-05T10:57:09.255Z,1.47
2018-07-05T10:59:49.984Z,2.70
2018-07-05T11:02:31.717Z,1.90
2018-07-05T11:05:12.134Z,2.20
2018-07-05T11:07:52.761Z,3.40
2018-07-05T11:10:33.407Z,2.17
2018-07-05T11:13:14.615Z,2.80
2018-07-05T11:15:55.669Z,2.07
2018-07-05T11:18:36.627Z,2.60
2018-07-05T11:21:17.126Z,2.73
2018-07-05T11:23:57.803Z,2.30
2018-07-05T11:26:38.458Z,2.43
2018-07-05T11:29:19.407Z,2.30
2018-07-05T11:32:00.236Z,2.80
2018-07-05T11:34:40.796Z,3.23
2018-07-05T11:37:21.405Z,3.17
2018-07-05T11:40:02.235Z,2.37
2018-07-05T11:42:43.098Z,2.13
2018-07-05T11:45:23.947Z,2.80
2018-07-05T11:48:04.538Z,2.30
2018-07-05T11:50:45.416Z,1.90
2018-07-05T11:53:26.050Z,2.00
2018-07-05T11:56:07.024Z,1.77
2018-07-05T11:58:47.521Z,2.20
2018-07-05T12:01:27.852Z,1.80
2018-07-05T12:04:08.804Z,1.50
2018-07-05T12:06:49.431Z,1.60
2018-07-05T12:09:29.900Z,1.87
2018-07-05T12:12:10.967Z,1.70
2018-07-05T12:14:51.562Z,1.70
2018-07-05T12:17:32.619Z,2.23
2018-07-05T12:20:14.283Z,1.60
2018-07-05T12:22:54.731Z,1.60
2018-07-05T12:25:35.260Z,2.03
2018-07-05T12:28:16.017Z,1.93
2018-07-05T12:30:56.531Z,1.93
2018-07-05T12:33:37.243Z,2.20
2018-07-05T12:36:17.894Z,2.20
2018-07-05T12:38:58.762Z,2.40
2018-07-05T12:41:39.552Z,2.70
2018-07-05T12:44:20.129Z,1.93
2018-07-05T12:47:00.881Z,2.07
2018-07-05T12:49:41.696Z,1.20
2018-07-05T12:52:22.439Z,1.57
2018-07-05T12:55:04.641Z,1.97
2018-07-05T12:57:45.261Z,1.00
2018-07-05T13:00:25.710Z,1.07
2018-07-05T13:03:06.610Z,1.57
2018-07-05T13:05:47.507Z,1.10
2018-07-05T13:08:27.833Z,1.37
2018-07-05T13:11:08.779Z,1.10
2018-07-05T13:13:49.424Z,0.77
2018-07-05T13:16:30.164Z,1.20
2018-07-05T13:19:10.699Z,1.00
2018-07-05T13:21:51.242Z,1.00
2018-07-05T13:24:32.138Z,2.17
2018-07-05T13:27:12.717Z,1.10
2018-07-05T13:29:53.337Z,1.03
2018-07-05T13:32:34.230Z,1.40
2018-07-05T13:35:15.354Z,1.47
2018-07-05T13:37:55.981Z,1.27
2018-07-05T13:40:36.900Z,1.07
2018-07-05T13:43:17.722Z,1.60
2018-07-05T13:45:58.076Z,1.20
2018-07-05T13:48:38.924Z,1.13
2018-07-05T13:51:19.408Z,1.40
2018-07-05T13:53:59.924Z,1.50
2018-07-05T13:56:40.540Z,2.10
2018-07-05T13:59:21.241Z,1.23
2018-07-05T14:02:02.834Z,1.30
2018-07-05T14:04:43.626Z,1.07
2018-07-05T14:07:24.016Z,1.63
2018-07-05T14:10:04.487Z,1.80
2018-07-05T14:12:45.143Z,1.13
2018-07-05T14:15:25.829Z,1.50
2018-07-05T14:18:06.615Z,1.20
2018-07-05T14:20:47.758Z,1.30
2018-07-05T14:23:28.474Z,1.70
2018-07-05T14:26:09.375Z,1.47
2018-07-05T14:28:50.884Z,1.30
2018-07-05T14:31:31.693Z,1.07
2018-07-05T14:34:12.444Z,1.33
2018-07-05T14:36:53.230Z,1.80
2018-07-05T14:39:33.803Z,1.70
2018-07-05T14:42:14.730Z,1.80
2018-07-05T14:44:55.276Z,1.57
2018-07-05T14:47:36.248Z,1.30
2018-07-05T14:50:16.749Z,1.23
2018-07-05T14:52:57.512Z,2.00
2018-07-05T14:55:39.188Z,1.30
2018-07-05T14:58:19.786Z,2.10
2018-07-05T15:01:00.274Z,1.40
2018-07-05T15:03:40.736Z,1.50
2018-07-05T15:06:21.273Z,1.27
2018-07-05T15:09:02.226Z,1.50
2018-07-05T15:11:43.096Z,1.70
2018-07-05T15:14:23.485Z,1.30
2018-07-05T15:17:04.660Z,1.80
2018-07-05T15:19:45.304Z,1.57
2018-07-05T15:22:26.199Z,1.60
2018-07-05T15:25:08.530Z,1.30
2018-07-05T15:27:49.237Z,1.50
2018-07-05T15:30:30.029Z,1.00
2018-07-05T15:33:11.094Z,1.40
2018-07-05T15:35:52.404Z,1.30
2018-07-05T15:38:33.369Z,1.20
2018-07-05T15:41:15.037Z,2.23
2018-07-05T15:43:55.621Z,1.10
2018-07-05T15:46:38.149Z,1.20
2018-07-05T15:49:18.682Z,1.00
2018-07-05T15:51:59.164Z,1.60
2018-07-05T15:54:39.719Z,0.93
2018-07-05T15:57:20.369Z,1.40
2018-07-05T16:00:00.969Z,1.30
2018-07-05T16:02:42.354Z,1.47
2018-07-05T16:05:22.875Z,1.43
2018-07-05T16:08:03.705Z,1.30
2018-07-05T16:10:44.223Z,1.70
2018-07-05T16:13:24.703Z,1.27
2018-07-05T16:16:05.300Z,1.20
2018-07-05T16:18:46.221Z,1.47
2018-07-05T16:21:26.877Z,1.70
2018-07-05T16:24:07.982Z,1.60
2018-07-05T16:26:48.751Z,1.27
2018-07-05T16:29:29.949Z,2.10
2018-07-05T16:32:10.689Z,1.60
2018-07-05T16:34:51.434Z,1.20
2018-07-05T16:37:32.751Z,1.20
2018-07-05T16:40:13.423Z,1.20
2018-07-05T16:42:53.944Z,1.80
2018-07-05T16:45:34.745Z,1.57
2018-07-05T16:48:15.393Z,1.30
2018-07-05T16:50:56.141Z,1.20
2018-07-05T16:53:36.790Z,1.73
2018-07-05T16:56:17.537Z,1.30
2018-07-05T16:58:58.400Z,2.23
2018-07-05T17:01:39.170Z,1.70
2018-07-05T17:04:19.836Z,1.90
2018-07-05T17:07:00.374Z,1.33
2018-07-05T17:09:41.037Z,1.30
2018-07-05T17:12:21.589Z,1.70
2018-07-05T17:15:02.251Z,1.43
2018-07-05T17:17:42.973Z,1.20
2018-07-05T17:20:23.488Z,1.57
2018-07-05T17:23:04.684Z,1.70
2018-07-05T17:25:45.315Z,1.87
2018-07-05T17:28:25.710Z,3.37
2018-07-05T17:31:06.355Z,1.63
2018-07-05T17:33:47.250Z,1.67
2018-07-05T17:36:27.856Z,1.60
2018-07-05T17:39:08.665Z,1.70
2018-07-05T17:41:49.388Z,1.37
2018-07-05T17:44:29.917Z,1.83
2018-07-05T17:47:10.646Z,1.20
2018-07-05T17:49:51.151Z,1.47
2018-07-05T17:52:36.151Z,1.50
2018-07-05T17:55:18.064Z,1.57
2018-07-05T17:57:58.595Z,1.70
2018-07-05T18:00:39.693Z,1.87
2018-07-05T18:03:20.440Z,1.50
2018-07-05T18:06:01.325Z,1.47
2018-07-05T18:08:42.026Z,1.63
2018-07-05T18:11:22.640Z,1.50
2018-07-05T18:14:03.331Z,1.90
2018-07-05T18:16:44.023Z,1.47
2018-07-05T18:19:24.510Z,1.53
2018-07-05T18:22:05.393Z,1.77
2018-07-05T18:24:46.017Z,1.87
2018-07-05T18:27:26.572Z,1.40
2018-07-05T18:30:07.151Z,1.20
2018-07-05T18:32:47.804Z,1.90
2018-07-05T18:35:28.383Z,1.67
2018-07-05T18:38:09.498Z,2.00
2018-07-05T18:40:50.029Z,1.53
2018-07-05T18:43:31.173Z,1.90
2018-07-05T18:46:11.919Z,1.90
2018-07-05T18:48:52.784Z,2.17
2018-07-05T18:51:33.568Z,2.37
2018-07-05T18:54:14.134Z,2.20
2018-07-05T18:56:54.636Z,1.60
2018-07-05T18:59:35.859Z,1.60
2018-07-05T19:02:16.401Z,3.20
2018-07-05T19:04:57.160Z,2.20
2018-07-05T19:07:37.885Z,1.50
2018-07-05T19:10:18.634Z,1.40
2018-07-05T19:12:58.994Z,1.67
2018-07-05T19:15:41.037Z,1.47
2018-07-05T19:18:21.507Z,1.43
2018-07-05T19:21:02.322Z,1.90
2018-07-05T19:23:42.940Z,1.97
2018-07-05T19:26:23.492Z,1.60
2018-07-05T19:29:04.387Z,1.83
2018-07-05T19:31:45.548Z,1.80
2018-07-05T19:34:26.093Z,1.77
2018-07-05T19:37:06.994Z,1.60
2018-07-05T19:39:47.878Z,1.90
2018-07-05T19:42:28.738Z,1.90
2018-07-05T19:45:09.296Z,1.60
2018-07-05T19:47:50.241Z,1.30
2018-07-05T19:50:30.792Z,2.13
2018-07-05T19:53:11.867Z,1.60
2018-07-05T19:55:52.350Z,2.10
2018-07-05T19:58:32.824Z,1.90
2018-07-05T20:01:13.678Z,1.77
2018-07-05T20:03:54.559Z,2.13
2018-07-05T20:06:35.334Z,1.90
2018-07-05T20:09:16.494Z,1.90
2018-07-05T20:12:02.473Z,2.27
2018-07-05T20:14:43.568Z,2.13
2018-07-05T20:17:24.158Z,1.90
2018-07-05T20:20:05.108Z,1.90
2018-07-05T20:22:45.876Z,1.83
2018-07-05T20:25:26.537Z,1.80
2018-07-05T20:28:07.298Z,1.80
2018-07-05T20:30:47.910Z,2.10
2018-07-05T20:33:28.464Z,1.73
2018-07-05T20:36:08.916Z,1.70
2018-07-05T20:38:49.242Z,2.50
2018-07-05T20:41:29.688Z,2.27
2018-07-05T20:44:10.269Z,2.53
2018-07-05T20:46:51.765Z,1.90
2018-07-05T20:49:32.622Z,1.80
2018-07-05T20:52:13.295Z,2.60
2018-07-05T20:54:53.865Z,2.10
2018-07-05T20:57:34.940Z,2.10
2018-07-05T21:00:15.788Z,1.83
2018-07-05T21:02:56.406Z,2.10
2018-07-05T21:05:36.947Z,2.03
2018-07-05T21:08:17.804Z,1.93
2018-07-05T21:10:58.405Z,2.03
2018-07-05T21:13:39.664Z,1.83
2018-07-05T21:16:20.425Z,2.00
2018-07-05T21:19:01.604Z,1.83
2018-07-05T21:21:42.470Z,1.70
2018-07-05T21:24:23.014Z,1.70
2018-07-05T21:27:03.704Z,2.20
2018-07-05T21:29:44.595Z,1.33
2018-07-05T21:32:25.211Z,1.63
2018-07-05T21:35:06.022Z,1.80
2018-07-05T21:37:46.561Z,1.97
2018-07-05T21:40:27.309Z,2.13
2018-07-05T21:43:07.912Z,1.93
2018-07-05T21:45:48.680Z,2.07
2018-07-05T21:48:29.409Z,2.40
2018-07-05T21:51:10.074Z,2.20
2018-07-05T21:53:50.580Z,1.63
2018-07-05T21:56:31.495Z,2.13
2018-07-05T21:59:11.838Z,2.57
2018-07-05T22:01:52.397Z,2.80
2018-07-05T22:04:33.899Z,2.67
2018-07-05T22:07:14.542Z,3.23
2018-07-05T22:09:54.978Z,3.67
2018-07-05T22:12:36.075Z,3.00
2018-07-05T22:15:16.646Z,3.27
2018-07-05T22:18:02.692Z,3.90
2018-07-05T22:20:48.611Z,3.83
2018-07-05T22:23:34.782Z,3.60
2018-07-05T22:26:20.889Z,3.83
2018-07-05T22:29:07.336Z,4.23
2018-07-05T22:31:52.013Z,3.83
2018-07-05T22:34:33.068Z,5.00
2018-07-05T22:37:13.653Z,4.30
2018-07-05T22:39:54.589Z,3.70
2018-07-05T22:42:35.503Z,3.50
2018-07-05T22:45:16.488Z,4.83
2018-07-05T22:47:56.835Z,3.50
2018-07-05T22:50:37.660Z,5.20
2018-07-05T22:53:18.186Z,4.20
2018-07-05T22:55:58.893Z,4.27
2018-07-05T22:58:39.425Z,4.30
2018-07-05T23:01:20.159Z,4.57
2018-07-05T23:04:01.017Z,4.10
2018-07-05T23:06:42.291Z,4.83
2018-07-05T23:09:22.776Z,3.60
2018-07-05T23:12:04.081Z,3.67
2018-07-05T23:14:44.761Z,3.20
2018-07-05T23:17:25.405Z,4.07
2018-07-05T23:20:11.924Z,3.90
2018-07-05T23:22:52.377Z,3.20
2018-07-05T23:25:33.198Z,4.23
2018-07-05T23:28:14.120Z,3.43
2018-07-05T23:30:54.496Z,3.60
2018-07-05T23:33:35.114Z,3.30
2018-07-05T23:36:15.660Z,3.83
2018-07-05T23:38:56.324Z,4.13
2018-07-05T23:41:36.784Z,3.40
2018-07-05T23:44:17.335Z,3.60
2018-07-05T23:46:57.984Z,3.03
2018-07-05T23:49:38.550Z,3.60
2018-07-05T23:52:19.038Z,2.97
2018-07-05T23:54:59.576Z,3.20
2018-07-05T23:57:40.058Z,4.17
